createdAt,value
2018-11-13T00:00:34.255Z,57.33
2018-11-13T00:03:05.823Z,53.93
2018-11-13T00:05:35.660Z,55.03
2018-11-13T00:08:06.111Z,54.80
2018-11-13T00:10:35.420Z,52.50
2018-11-13T00:13:03.661Z,53.87
2018-11-13T00:15:38.123Z,54.27
2018-11-13T00:18:09.006Z,55.00
2018-11-13T00:20:40.065Z,52.50
2018-11-13T00:23:10.981Z,53.37
2018-11-13T00:25:40.582Z,54.20
2018-11-13T00:28:12.095Z,52.17
2018-11-13T00:30:45.085Z,55.03
2018-11-13T00:33:14.519Z,51.70
2018-11-13T00:35:46.717Z,54.23
2018-11-13T00:38:15.451Z,53.30
2018-11-13T00:40:44.427Z,51.80
2018-11-13T00:43:15.131Z,51.23
2018-11-13T00:45:45.775Z,52.30
2018-11-13T00:48:14.814Z,52.03
2018-11-13T00:50:45.783Z,46.80
2018-11-13T00:53:19.433Z,49.57
2018-11-13T00:55:50.671Z,50.53
2018-11-13T00:58:19.795Z,50.20
2018-11-13T01:00:50.076Z,47.70
2018-11-13T01:03:24.585Z,50.80
2018-11-13T01:05:53.903Z,49.63
2018-11-13T01:08:23.594Z,50.73
2018-11-13T01:10:54.379Z,45.97
2018-11-13T01:13:27.725Z,49.87
2018-11-13T01:15:57.481Z,50.53
2018-11-13T01:18:29.274Z,49.30
2018-11-13T01:21:02.516Z,46.57
2018-11-13T01:23:34.691Z,46.73
2018-11-13T01:26:03.975Z,46.83
2018-11-13T01:28:32.194Z,46.70
2018-11-13T01:31:02.877Z,47.57
2018-11-13T01:33:33.956Z,46.57
2018-11-13T01:36:02.108Z,43.70
2018-11-13T01:38:32.470Z,44.73
2018-11-13T01:41:02.154Z,44.10
2018-11-13T01:43:30.990Z,43.83
2018-11-13T01:46:00.633Z,45.30
2018-11-13T01:48:41.369Z,42.97
2018-11-13T01:51:10.506Z,43.07
2018-11-13T01:53:38.715Z,41.40
2018-11-13T01:56:06.740Z,44.17
2018-11-13T01:58:37.715Z,44.00
2018-11-13T02:01:12.265Z,42.27
2018-11-13T02:03:41.080Z,42.40
2018-11-13T02:06:11.347Z,39.27
2018-11-13T02:08:44.541Z,41.97
2018-11-13T02:11:14.479Z,40.00
2018-11-13T02:13:45.510Z,38.70
2018-11-13T02:16:14.335Z,41.67
2018-11-13T02:18:45.427Z,39.43
2018-11-13T02:21:17.461Z,41.33
2018-11-13T02:23:46.594Z,40.70
2018-11-13T02:26:16.809Z,39.20
2018-11-13T02:28:46.339Z,39.30
2018-11-13T02:31:15.147Z,39.43
2018-11-13T02:33:45.200Z,39.70
2018-11-13T02:36:15.494Z,40.43
2018-11-13T02:41:47.435Z,38.90
2018-11-13T02:44:21.234Z,42.40
2018-11-13T02:47:00.834Z,39.10
2018-11-13T02:49:31.125Z,38.87
2018-11-13T02:52:01.452Z,40.97
2018-11-13T02:54:39.610Z,38.37
2018-11-13T02:57:12.985Z,38.77
2018-11-13T02:59:45.954Z,37.73
2018-11-13T03:02:17.014Z,39.30
2018-11-13T03:04:47.882Z,39.70
2018-11-13T03:07:22.848Z,37.63
2018-11-13T03:09:53.672Z,38.43
2018-11-13T03:12:23.338Z,38.87
2018-11-13T03:14:53.852Z,38.77
2018-11-13T03:17:24.480Z,37.03
2018-11-13T03:19:55.660Z,38.90
2018-11-13T03:22:26.753Z,40.53
2018-11-13T03:24:58.043Z,38.90
2018-11-13T03:27:30.127Z,38.43
2018-11-13T03:30:01.746Z,38.20
2018-11-13T03:32:31.500Z,38.33
2018-11-13T03:35:01.598Z,37.83
2018-11-13T03:37:31.942Z,40.10
2018-11-13T03:40:01.308Z,38.47
2018-11-13T03:42:33.079Z,40.20
2018-11-13T03:45:07.154Z,40.57
2018-11-13T03:47:37.569Z,38.30
2018-11-13T03:50:10.022Z,36.87
2018-11-13T03:52:41.603Z,37.57
2018-11-13T03:55:13.177Z,38.17
2018-11-13T03:57:43.710Z,37.73
2018-11-13T04:00:18.356Z,38.63
2018-11-13T04:02:47.841Z,38.90
2018-11-13T04:05:25.996Z,39.67
2018-11-13T04:07:57.032Z,38.77
2018-11-13T04:10:27.211Z,35.53
2018-11-13T04:13:07.365Z,37.53
2018-11-13T04:15:37.290Z,37.60
2018-11-13T04:18:07.511Z,38.23
2018-11-13T04:20:37.982Z,37.87
2018-11-13T04:23:19.101Z,39.23
2018-11-13T04:25:49.607Z,39.37
2018-11-13T04:28:22.616Z,37.93
2018-11-13T04:30:55.749Z,39.03
2018-11-13T04:33:26.846Z,39.37
2018-11-13T04:35:59.086Z,38.27
2018-11-13T04:38:29.489Z,37.07
2018-11-13T04:41:01.184Z,39.67
2018-11-13T04:43:31.802Z,36.40
2018-11-13T04:46:01.429Z,36.73
2018-11-13T04:48:33.342Z,36.90
2018-11-13T04:51:05.865Z,38.47
2018-11-13T04:53:36.558Z,37.03
2018-11-13T04:56:08.009Z,35.73
2018-11-13T04:58:39.135Z,33.27
2018-11-13T05:01:10.522Z,38.47
2018-11-13T05:03:40.106Z,36.33
2018-11-13T05:06:10.028Z,38.63
2018-11-13T05:08:52.766Z,39.37
2018-11-13T05:11:58.599Z,39.27
2018-11-13T05:14:37.158Z,40.13
2018-11-13T05:17:10.005Z,39.10
2018-11-13T05:19:39.722Z,37.83
2018-11-13T05:22:13.434Z,39.30
2018-11-13T05:24:42.917Z,37.33
2018-11-13T05:29:47.448Z,45.50
2018-11-13T05:32:21.555Z,40.73
2018-11-13T05:34:59.396Z,37.07
2018-11-13T05:37:28.898Z,37.10
2018-11-13T05:39:57.841Z,37.07
2018-11-13T05:42:26.804Z,36.07
2018-11-13T05:44:55.616Z,37.10
2018-11-13T05:47:24.490Z,36.80
2018-11-13T05:52:27.662Z,39.70
2018-11-13T05:54:57.298Z,38.70
2018-11-13T05:57:26.487Z,39.70
2018-11-13T05:59:55.670Z,37.47
2018-11-13T06:02:25.450Z,36.67
2018-11-13T06:04:54.261Z,37.23
2018-11-13T06:07:24.475Z,37.80
2018-11-13T06:09:53.151Z,37.80
2018-11-13T06:12:21.835Z,39.13
2018-11-13T06:14:50.502Z,39.23
2018-11-13T06:17:21.132Z,37.97
2018-11-13T06:19:49.855Z,40.83
2018-11-13T06:22:19.422Z,37.70
2018-11-13T06:24:49.047Z,37.20
2018-11-13T06:27:18.663Z,38.00
2018-11-13T06:29:48.046Z,38.70
2018-11-13T06:32:17.399Z,37.13
2018-11-13T06:34:46.267Z,39.20
2018-11-13T06:37:14.981Z,38.10
2018-11-13T06:39:43.617Z,36.00
2018-11-13T06:42:17.454Z,38.10
2018-11-13T06:44:46.321Z,38.57
2018-11-13T06:47:15.121Z,38.20
2018-11-13T06:49:46.574Z,37.40
2018-11-13T06:52:17.263Z,37.87
2018-11-13T06:55:18.735Z,37.67
2018-11-13T06:57:48.130Z,36.20
2018-11-13T07:00:17.738Z,34.83
2018-11-13T07:02:47.152Z,37.20
2018-11-13T07:05:18.158Z,36.97
2018-11-13T07:07:47.061Z,36.53
2018-11-13T07:10:17.333Z,36.20
2018-11-13T07:12:48.167Z,35.63
2018-11-13T07:15:19.494Z,36.10
2018-11-13T07:17:49.499Z,35.80
2018-11-13T07:20:20.067Z,36.50
2018-11-13T07:22:50.655Z,34.67
2018-11-13T07:25:19.733Z,36.43
2018-11-13T07:27:48.639Z,34.33
2018-11-13T07:30:18.317Z,35.03
2018-11-13T07:32:47.211Z,34.13
2018-11-13T07:35:19.271Z,36.00
2018-11-13T07:37:51.647Z,34.33
2018-11-13T07:40:20.692Z,34.77
2018-11-13T07:42:49.590Z,34.93
2018-11-13T07:45:18.359Z,34.97
2018-11-13T07:47:49.849Z,37.00
2018-11-13T07:52:53.122Z,35.27
2018-11-13T07:55:22.169Z,34.60
2018-11-13T07:57:53.319Z,35.93
2018-11-13T08:00:23.190Z,35.50
2018-11-13T08:02:55.619Z,36.47
2018-11-13T08:05:30.512Z,33.73
2018-11-13T08:08:00.890Z,33.80
2018-11-13T08:10:31.184Z,35.88
2018-11-13T08:13:03.859Z,34.07
2018-11-13T08:15:32.785Z,35.50
2018-11-13T08:18:03.847Z,33.50
2018-11-13T08:20:32.697Z,32.57
2018-11-13T08:23:01.680Z,31.30
2018-11-13T08:25:30.439Z,33.30
2018-11-13T08:27:59.134Z,33.63
2018-11-13T08:30:30.834Z,35.07
2018-11-13T08:33:01.538Z,32.03
2018-11-13T08:35:30.453Z,35.77
2018-11-13T08:38:00.087Z,33.77
2018-11-13T08:40:31.638Z,33.93
2018-11-13T08:43:02.576Z,35.07
2018-11-13T08:45:32.070Z,33.13
2018-11-13T08:48:03.318Z,32.73
2018-11-13T08:50:33.283Z,32.83
2018-11-13T08:53:02.824Z,32.40
2018-11-13T08:55:35.813Z,33.17
2018-11-13T08:58:06.495Z,33.63
2018-11-13T09:00:36.064Z,33.00
2018-11-13T09:03:06.904Z,32.28
2018-11-13T09:05:37.174Z,32.63
2018-11-13T09:08:06.311Z,31.62
2018-11-13T09:10:37.897Z,33.70
2018-11-13T09:13:09.638Z,31.55
2018-11-13T09:15:39.870Z,29.55
2018-11-13T09:18:10.075Z,33.38
2018-11-13T09:20:41.320Z,34.48
2018-11-13T09:23:11.480Z,33.75
2018-11-13T09:25:41.042Z,32.90
2018-11-13T09:28:11.070Z,33.28
2018-11-13T09:30:42.264Z,33.90
2018-11-13T09:33:12.082Z,34.60
2018-11-13T09:35:41.439Z,33.75
2018-11-13T09:38:11.860Z,33.30
2018-11-13T09:40:41.111Z,34.40
2018-11-13T09:43:11.742Z,34.30
2018-11-13T09:45:44.453Z,33.90
2018-11-13T09:48:16.490Z,32.40
2018-11-13T09:50:47.689Z,32.98
2018-11-13T09:53:18.164Z,33.53
2018-11-13T09:55:47.090Z,33.83
2018-11-13T09:58:16.048Z,36.20
2018-11-13T10:00:48.021Z,31.27
2018-11-13T10:03:18.236Z,34.38
2018-11-13T10:05:47.300Z,32.15
2018-11-13T10:08:16.158Z,33.92
2018-11-13T10:10:45.799Z,32.58
2018-11-13T10:13:18.946Z,30.65
2018-11-13T10:15:57.400Z,31.42
2018-11-13T10:18:26.643Z,30.40
2018-11-13T10:20:59.323Z,31.95
2018-11-13T10:23:28.319Z,33.48
2018-11-13T10:26:00.801Z,33.13
2018-11-13T10:28:30.826Z,32.67
2018-11-13T10:31:02.543Z,33.83
2018-11-13T10:33:32.561Z,32.90
2018-11-13T10:36:02.217Z,33.30
2018-11-13T10:38:32.199Z,32.83
2018-11-13T10:41:01.384Z,33.38
2018-11-13T10:43:30.282Z,33.67
2018-11-13T10:46:00.011Z,32.60
2018-11-13T10:48:29.027Z,33.73
2018-11-13T10:50:59.995Z,33.02
2018-11-13T10:53:29.243Z,33.20
2018-11-13T10:55:58.351Z,33.00
2018-11-13T10:58:28.938Z,33.70
2018-11-13T11:01:04.335Z,34.73
2018-11-13T11:03:38.388Z,33.67
2018-11-13T11:06:08.610Z,34.23
2018-11-13T11:08:38.444Z,32.95
2018-11-13T11:11:09.699Z,33.90
2018-11-13T11:13:39.312Z,35.15
2018-11-13T11:16:11.217Z,33.28
2018-11-13T11:18:40.148Z,35.75
2018-11-13T11:21:10.013Z,34.05
2018-11-13T11:23:39.893Z,34.13
2018-11-13T11:26:11.634Z,34.43
2018-11-13T11:28:42.359Z,35.43
2018-11-13T11:31:13.376Z,34.13
2018-11-13T11:33:45.299Z,35.23
2018-11-13T11:36:15.195Z,33.65
2018-11-13T11:38:44.616Z,34.58
2018-11-13T11:41:15.958Z,35.78
2018-11-13T11:43:45.173Z,33.83
2018-11-13T11:46:15.275Z,33.90
2018-11-13T11:48:44.024Z,35.90
2018-11-13T11:51:14.781Z,35.73
2018-11-13T11:53:43.833Z,35.70
2018-11-13T11:56:12.770Z,34.35
2018-11-13T11:58:42.462Z,34.00
2018-11-13T12:01:12.422Z,35.55
2018-11-13T12:03:42.161Z,33.63
2018-11-13T12:06:11.028Z,32.83
2018-11-13T12:08:42.836Z,32.03
2018-11-13T12:11:12.313Z,31.75
2018-11-13T12:13:43.297Z,32.55
2018-11-13T12:16:13.979Z,33.92
2018-11-13T12:18:43.050Z,34.53
2018-11-13T12:21:12.227Z,33.60
2018-11-13T12:23:41.475Z,36.65
2018-11-13T12:26:10.246Z,33.70
2018-11-13T12:28:39.046Z,34.08
2018-11-13T12:31:10.752Z,34.40
2018-11-13T12:33:40.555Z,36.50
2018-11-13T12:36:11.268Z,33.55
2018-11-13T12:38:41.413Z,32.33
2018-11-13T12:41:10.299Z,32.03
2018-11-13T12:43:40.335Z,35.70
2018-11-13T12:46:10.029Z,34.55
2018-11-13T12:48:40.995Z,35.20
2018-11-13T12:51:15.784Z,34.43
2018-11-13T12:53:44.645Z,35.45
2018-11-13T12:56:14.191Z,34.23
2018-11-13T12:58:45.064Z,34.95
2018-11-13T13:01:15.752Z,34.90
2018-11-13T13:03:46.397Z,34.80
2018-11-13T13:06:21.371Z,33.92
2018-11-13T13:08:50.319Z,35.83
2018-11-13T13:11:19.623Z,33.88
2018-11-13T13:13:49.743Z,33.50
2018-11-13T13:16:18.735Z,35.78
2018-11-13T13:18:47.645Z,36.15
2018-11-13T13:21:17.138Z,33.80
2018-11-13T13:23:46.333Z,33.63
2018-11-13T13:26:15.224Z,33.95
2018-11-13T13:28:46.012Z,33.25
2018-11-13T13:31:16.068Z,34.78
2018-11-13T13:33:46.979Z,31.82
2018-11-13T13:36:16.539Z,31.65
2018-11-13T13:38:45.467Z,32.63
2018-11-13T13:41:14.055Z,31.55
2018-11-13T13:43:43.381Z,31.15
2018-11-13T13:46:12.224Z,32.88
2018-11-13T13:48:42.655Z,32.00
2018-11-13T13:51:13.638Z,32.20
2018-11-13T13:53:43.005Z,31.20
2018-11-13T13:56:12.527Z,34.58
2018-11-13T13:58:41.511Z,32.23
2018-11-13T14:01:10.362Z,31.15
2018-11-13T14:03:40.484Z,31.68
2018-11-13T14:06:10.237Z,32.58
2018-11-13T14:08:39.906Z,32.63
2018-11-13T14:11:09.381Z,33.08
2018-11-13T14:13:38.356Z,32.93
2018-11-13T14:16:07.737Z,31.70
2018-11-13T14:18:36.549Z,32.65
2018-11-13T14:21:05.340Z,33.60
2018-11-13T14:23:34.081Z,35.05
2018-11-13T14:26:03.020Z,34.45
2018-11-13T14:28:33.915Z,32.58
2018-11-13T14:31:04.653Z,32.65
2018-11-13T14:33:33.481Z,34.78
2018-11-13T14:36:03.907Z,34.05
2018-11-13T14:38:32.886Z,31.52
2018-11-13T14:41:01.674Z,33.20
2018-11-13T14:43:32.184Z,35.87
2018-11-13T14:46:02.647Z,34.98
2018-11-13T14:48:32.792Z,34.45
2018-11-13T14:51:03.070Z,36.35
2018-11-13T14:53:32.543Z,36.30
2018-11-13T14:56:02.242Z,34.58
2018-11-13T14:58:31.864Z,35.98
2018-11-13T15:01:00.648Z,34.07
2018-11-13T15:03:29.459Z,34.88
2018-11-13T15:05:58.384Z,33.70
2018-11-13T15:08:27.210Z,36.10
2018-11-13T15:10:57.019Z,35.78
2018-11-13T15:13:28.809Z,37.13
2018-11-13T15:15:59.363Z,36.47
2018-11-13T15:18:30.167Z,35.52
2018-11-13T15:20:59.135Z,36.90
2018-11-13T15:23:29.553Z,37.05
2018-11-13T15:26:02.683Z,37.78
2018-11-13T15:28:32.497Z,38.58
2018-11-13T15:31:01.946Z,38.40
2018-11-13T15:33:33.742Z,37.07
2018-11-13T15:36:02.733Z,38.83
2018-11-13T15:38:33.422Z,41.57
2018-11-13T15:41:03.286Z,37.75
2018-11-13T15:43:33.679Z,40.08
2018-11-13T15:46:04.743Z,38.20
2018-11-13T15:48:35.012Z,38.43
2018-11-13T15:51:09.060Z,38.73
2018-11-13T15:53:36.139Z,38.75
2018-11-13T15:56:05.787Z,37.60
2018-11-13T15:58:36.300Z,40.43
2018-11-13T16:01:05.610Z,41.77
2018-11-13T16:03:37.468Z,39.60
2018-11-13T16:06:10.737Z,41.90
2018-11-13T16:08:39.888Z,40.92
2018-11-13T16:11:10.444Z,41.27
2018-11-13T16:13:40.588Z,43.92
2018-11-13T16:16:09.714Z,41.60
2018-11-13T16:18:39.592Z,42.67
2018-11-13T16:21:09.005Z,41.23
2018-11-13T16:23:37.866Z,41.13
2018-11-13T16:26:08.255Z,42.25
2018-11-13T16:28:37.487Z,42.10
2018-11-13T16:31:06.255Z,42.63
2018-11-13T16:33:35.336Z,44.27
2018-11-13T16:36:04.142Z,50.28
2018-11-13T16:38:33.510Z,46.50
2018-11-13T16:41:02.236Z,46.65
2018-11-13T16:43:31.005Z,42.40
2018-11-13T16:45:59.721Z,41.48
2018-11-13T16:48:29.280Z,43.00
2018-11-13T16:51:01.415Z,41.63
2018-11-13T16:53:34.285Z,44.33
2018-11-13T16:56:03.426Z,48.93
2018-11-13T16:58:32.112Z,43.33
2018-11-13T17:01:00.890Z,44.10
2018-11-13T17:03:29.668Z,44.90
2018-11-13T17:05:58.970Z,46.30
2018-11-13T17:08:27.532Z,43.87
2018-11-13T17:10:56.278Z,43.10
2018-11-13T17:13:25.277Z,46.00
2018-11-13T17:15:54.164Z,45.43
2018-11-13T17:18:22.976Z,48.68
2018-11-13T17:20:51.748Z,43.43
2018-11-13T17:23:20.456Z,43.98
2018-11-13T17:25:49.314Z,42.67
2018-11-13T17:28:19.069Z,42.90
2018-11-13T17:30:48.356Z,53.17
2018-11-13T17:33:19.790Z,48.28
2018-11-13T17:35:52.762Z,49.42
2018-11-13T17:38:22.137Z,56.70
2018-11-13T17:40:50.846Z,66.75
2018-11-13T17:43:19.953Z,47.00
2018-11-13T17:45:49.994Z,44.40
2018-11-13T17:48:19.454Z,47.37
2018-11-13T17:50:48.254Z,51.02
2018-11-13T17:53:17.583Z,44.80
2018-11-13T17:55:46.423Z,46.23
2018-11-13T17:58:15.919Z,48.50
2018-11-13T18:00:46.341Z,70.60
2018-11-13T18:03:16.293Z,50.10
2018-11-13T18:05:46.004Z,52.67
2018-11-13T18:08:15.110Z,95.75
2018-11-13T18:10:45.047Z,61.55
2018-11-13T18:13:13.888Z,52.62
2018-11-13T18:15:42.724Z,60.63
2018-11-13T18:18:12.096Z,62.38
2018-11-13T18:20:41.721Z,66.87
2018-11-13T18:23:10.659Z,64.58
2018-11-13T18:25:39.378Z,64.63
2018-11-13T18:28:08.560Z,63.93
2018-11-13T18:30:38.185Z,58.27
2018-11-13T18:33:08.216Z,54.97
2018-11-13T18:35:38.196Z,54.48
2018-11-13T18:38:09.965Z,51.70
2018-11-13T18:40:39.098Z,50.23
2018-11-13T18:43:07.876Z,47.80
2018-11-13T18:45:38.336Z,48.92
2018-11-13T18:48:08.224Z,45.47
2018-11-13T18:50:38.887Z,50.73
2018-11-13T18:53:07.725Z,50.43
2018-11-13T18:55:36.644Z,50.00
2018-11-13T18:58:05.691Z,49.83
2018-11-13T19:00:37.353Z,50.20
2018-11-13T19:03:07.747Z,51.27
2018-11-13T19:05:36.921Z,47.67
2018-11-13T19:08:06.313Z,42.48
2018-11-13T19:10:42.738Z,38.57
2018-11-13T19:13:15.486Z,36.60
2018-11-13T19:15:46.810Z,36.70
2018-11-13T19:18:16.411Z,35.20
2018-11-13T19:20:45.249Z,32.73
2018-11-13T19:23:14.036Z,30.90
2018-11-13T19:25:43.153Z,25.97
2018-11-13T19:28:12.090Z,30.27
2018-11-13T19:30:40.903Z,26.63
2018-11-13T19:33:09.989Z,26.80
2018-11-13T19:35:44.122Z,26.47
2018-11-13T19:38:14.917Z,25.45
2018-11-13T19:40:44.932Z,25.27
2018-11-13T19:43:16.016Z,23.87
2018-11-13T19:45:45.077Z,26.20
2018-11-13T19:48:14.541Z,24.93
2018-11-13T19:50:43.374Z,25.60
2018-11-13T19:53:12.311Z,24.50
2018-11-13T19:55:41.049Z,26.03
2018-11-13T19:58:09.852Z,27.50
2018-11-13T20:00:39.802Z,26.63
2018-11-13T20:03:09.782Z,26.68
2018-11-13T20:05:38.612Z,29.13
2018-11-13T20:08:08.291Z,29.27
2018-11-13T20:10:39.323Z,32.10
2018-11-13T20:13:09.212Z,27.83
2018-11-13T20:15:38.687Z,32.90
2018-11-13T20:18:08.397Z,26.17
2018-11-13T20:20:37.209Z,30.63
2018-11-13T20:23:08.045Z,29.10
2018-11-13T20:25:37.102Z,27.97
2018-11-13T20:28:05.811Z,27.57
2018-11-13T20:30:35.757Z,24.77
2018-11-13T20:33:04.447Z,26.27
2018-11-13T20:35:33.891Z,26.10
2018-11-13T20:38:03.167Z,31.90
2018-11-13T20:40:33.199Z,28.93
2018-11-13T20:43:03.141Z,25.77
2018-11-13T20:45:31.752Z,25.03
2018-11-13T20:48:00.528Z,27.10
2018-11-13T20:50:30.576Z,27.63
2018-11-13T20:52:59.198Z,26.73
2018-11-13T20:55:28.019Z,24.57
2018-11-13T20:57:56.782Z,24.47
2018-11-13T21:00:33.764Z,23.13
2018-11-13T21:03:02.434Z,24.73
2018-11-13T21:05:35.054Z,22.67
2018-11-13T21:08:03.845Z,21.23
2018-11-13T21:10:34.404Z,24.50
2018-11-13T21:13:03.690Z,21.33
2018-11-13T21:15:32.372Z,22.47
2018-11-13T21:18:01.159Z,20.90
2018-11-13T21:20:29.831Z,20.73
2018-11-13T21:22:58.460Z,21.93
2018-11-13T21:25:27.641Z,20.37
2018-11-13T21:27:58.189Z,20.57
2018-11-13T21:30:27.981Z,23.20
2018-11-13T21:32:56.588Z,21.77
2018-11-13T21:35:25.291Z,20.07
2018-11-13T21:37:55.459Z,22.87
2018-11-13T21:40:25.316Z,20.93
2018-11-13T21:42:54.918Z,20.07
2018-11-13T21:45:24.528Z,18.77
2018-11-13T21:47:53.376Z,20.97
2018-11-13T21:50:23.272Z,16.77
2018-11-13T21:52:51.949Z,20.37
2018-11-13T21:55:22.704Z,17.00
2018-11-13T21:57:51.470Z,18.40
2018-11-13T22:00:27.561Z,22.40
2018-11-13T22:02:59.675Z,19.00
2018-11-13T22:05:29.691Z,20.50
2018-11-13T22:07:58.691Z,17.90
2018-11-13T22:10:27.449Z,17.13
2018-11-13T22:12:56.214Z,19.57
2018-11-13T22:15:26.055Z,22.57
2018-11-13T22:17:54.688Z,20.37
2018-11-13T22:20:23.899Z,23.10
2018-11-13T22:22:53.780Z,19.40
2018-11-13T22:25:24.019Z,20.10
2018-11-13T22:27:53.899Z,20.43
2018-11-13T22:30:30.387Z,20.27
2018-11-13T22:32:59.014Z,20.97
2018-11-13T22:35:27.712Z,18.60
2018-11-13T22:37:56.524Z,19.77
2018-11-13T22:40:26.661Z,18.47
2018-11-13T22:42:55.295Z,20.77
2018-11-13T22:45:25.292Z,21.33
2018-11-13T22:47:54.296Z,18.93
2018-11-13T22:50:28.489Z,19.87
2018-11-13T22:52:57.272Z,21.43
2018-11-13T22:55:25.920Z,20.83
2018-11-13T22:57:55.607Z,21.63
2018-11-13T23:00:53.459Z,20.77
2018-11-13T23:03:22.140Z,18.60
2018-11-13T23:05:51.118Z,20.43
2018-11-13T23:08:20.818Z,21.20
2018-11-13T23:10:50.241Z,21.33
2018-11-13T23:13:18.928Z,21.90
2018-11-13T23:15:47.682Z,21.17
2018-11-13T23:18:16.352Z,20.00
2018-11-13T23:20:45.821Z,19.67
2018-11-13T23:23:14.513Z,20.53
2018-11-13T23:25:43.176Z,18.47
2018-11-13T23:28:11.868Z,20.13
2018-11-13T23:30:40.495Z,20.33
2018-11-13T23:33:09.429Z,19.27
2018-11-13T23:35:37.789Z,19.87
2018-11-13T23:38:06.698Z,16.20
2018-11-13T23:40:35.857Z,20.43
2018-11-13T23:43:04.291Z,18.03
2018-11-13T23:45:33.050Z,18.93
2018-11-13T23:48:02.137Z,18.63
2018-11-13T23:50:30.649Z,17.37
2018-11-13T23:52:59.328Z,18.87
2018-11-13T23:55:28.125Z,18.90
2018-11-13T23:57:56.761Z,18.97
